sensor_id;sensor_type;location;lat;lon;timestamp;P1;durP1;ratioP1;P2;durP2;ratioP2
10469;SDS011;5282;47.052;15.458;2023-04-25T00:00:32;4.40;;;4.00;;
10469;SDS011;5282;47.052;15.458;2023-04-25T00:02:59;4.27;;;3.97;;
10469;SDS011;5282;47.052;15.458;2023-04-25T00:05:28;4.00;;;3.90;;
10469;SDS011;5282;47.052;15.458;2023-04-25T00:07:55;4.07;;;3.87;;
10469;SDS011;5282;47.052;15.458;2023-04-25T00:10:23;4.20;;;4.00;;
10469;SDS011;5282;47.052;15.458;2023-04-25T00:12:50;4.97;;;4.30;;
10469;SDS011;5282;47.052;15.458;2023-04-25T00:15:17;4.23;;;4.03;;
10469;SDS011;5282;47.052;15.458;2023-04-25T00:17:44;4.13;;;4.00;;
10469;SDS011;5282;47.052;15.458;2023-04-25T00:20:12;4.20;;;4.10;;
10469;SDS011;5282;47.052;15.458;2023-04-25T00:22:40;4.70;;;4.40;;
10469;SDS011;5282;47.052;15.458;2023-04-25T00:25:07;5.07;;;4.67;;
10469;SDS011;5282;47.052;15.458;2023-04-25T00:27:34;4.20;;;4.00;;
10469;SDS011;5282;47.052;15.458;2023-04-25T00:30:02;4.13;;;4.03;;
10469;SDS011;5282;47.052;15.458;2023-04-25T00:32:29;4.03;;;3.93;;
10469;SDS011;5282;47.052;15.458;2023-04-25T00:34:56;4.33;;;4.03;;
10469;SDS011;5282;47.052;15.458;2023-04-25T00:37:24;5.00;;;4.70;;
10469;SDS011;5282;47.052;15.458;2023-04-25T00:39:52;4.43;;;4.23;;
10469;SDS011;5282;47.052;15.458;2023-04-25T00:42:21;4.27;;;4.07;;
10469;SDS011;5282;47.052;15.458;2023-04-25T00:44:48;4.37;;;4.20;;
10469;SDS011;5282;47.052;15.458;2023-04-25T00:47:16;4.47;;;4.07;;
10469;SDS011;5282;47.052;15.458;2023-04-25T00:49:43;4.73;;;4.30;;
10469;SDS011;5282;47.052;15.458;2023-04-25T00:52:10;4.60;;;4.20;;
10469;SDS011;5282;47.052;15.458;2023-04-25T00:54:37;4.50;;;4.20;;
10469;SDS011;5282;47.052;15.458;2023-04-25T00:57:06;4.47;;;4.27;;
10469;SDS011;5282;47.052;15.458;2023-04-25T00:59:33;4.20;;;4.00;;
10469;SDS011;5282;47.052;15.458;2023-04-25T01:02:00;4.50;;;4.30;;
10469;SDS011;5282;47.052;15.458;2023-04-25T01:04:27;4.77;;;4.57;;
10469;SDS011;5282;47.052;15.458;2023-04-25T01:06:54;4.50;;;4.00;;
10469;SDS011;5282;47.052;15.458;2023-04-25T01:09:22;3.73;;;3.53;;
10469;SDS011;5282;47.052;15.458;2023-04-25T01:11:49;4.53;;;4.00;;
10469;SDS011;5282;47.052;15.458;2023-04-25T01:14:18;4.13;;;4.00;;
10469;SDS011;5282;47.052;15.458;2023-04-25T01:16:45;4.27;;;3.97;;
10469;SDS011;5282;47.052;15.458;2023-04-25T01:19:12;4.27;;;4.07;;
10469;SDS011;5282;47.052;15.458;2023-04-25T01:21:44;4.43;;;4.13;;
10469;SDS011;5282;47.052;15.458;2023-04-25T01:24:12;4.30;;;4.20;;
10469;SDS011;5282;47.052;15.458;2023-04-25T01:26:40;4.20;;;4.00;;
10469;SDS011;5282;47.052;15.458;2023-04-25T01:29:09;4.10;;;4.00;;
10469;SDS011;5282;47.052;15.458;2023-04-25T01:31:37;4.00;;;3.90;;
10469;SDS011;5282;47.052;15.458;2023-04-25T01:34:04;4.20;;;4.07;;
10469;SDS011;5282;47.052;15.458;2023-04-25T01:36:31;4.50;;;4.20;;
10469;SDS011;5282;47.052;15.458;2023-04-25T01:39:00;4.20;;;4.00;;
10469;SDS011;5282;47.052;15.458;2023-04-25T01:41:28;4.87;;;4.47;;
10469;SDS011;5282;47.052;15.458;2023-04-25T01:43:56;4.50;;;4.30;;
10469;SDS011;5282;47.052;15.458;2023-04-25T01:46:23;4.60;;;4.40;;
10469;SDS011;5282;47.052;15.458;2023-04-25T01:48:50;5.10;;;4.60;;
10469;SDS011;5282;47.052;15.458;2023-04-25T01:51:18;4.27;;;4.07;;
10469;SDS011;5282;47.052;15.458;2023-04-25T01:53:46;4.77;;;4.57;;
10469;SDS011;5282;47.052;15.458;2023-04-25T01:56:14;4.57;;;4.20;;
10469;SDS011;5282;47.052;15.458;2023-04-25T01:58:42;4.40;;;4.20;;
10469;SDS011;5282;47.052;15.458;2023-04-25T02:01:10;5.10;;;4.80;;
10469;SDS011;5282;47.052;15.458;2023-04-25T02:03:37;4.83;;;4.50;;
10469;SDS011;5282;47.052;15.458;2023-04-25T02:06:04;4.63;;;4.30;;
10469;SDS011;5282;47.052;15.458;2023-04-25T02:08:32;4.60;;;4.37;;
10469;SDS011;5282;47.052;15.458;2023-04-25T02:10:59;4.63;;;4.43;;
10469;SDS011;5282;47.052;15.458;2023-04-25T02:13:27;5.00;;;4.80;;
10469;SDS011;5282;47.052;15.458;2023-04-25T02:15:54;4.90;;;4.47;;
10469;SDS011;5282;47.052;15.458;2023-04-25T02:18:22;5.07;;;4.73;;
10469;SDS011;5282;47.052;15.458;2023-04-25T02:20:49;4.83;;;4.63;;
10469;SDS011;5282;47.052;15.458;2023-04-25T02:23:16;4.80;;;4.50;;
10469;SDS011;5282;47.052;15.458;2023-04-25T02:25:44;5.27;;;4.80;;
10469;SDS011;5282;47.052;15.458;2023-04-25T02:28:11;4.70;;;4.50;;
10469;SDS011;5282;47.052;15.458;2023-04-25T02:30:40;4.40;;;4.20;;
10469;SDS011;5282;47.052;15.458;2023-04-25T02:33:07;5.00;;;4.70;;
10469;SDS011;5282;47.052;15.458;2023-04-25T02:35:34;4.60;;;4.33;;
10469;SDS011;5282;47.052;15.458;2023-04-25T02:38:02;4.47;;;4.07;;
10469;SDS011;5282;47.052;15.458;2023-04-25T02:40:28;4.50;;;4.20;;
10469;SDS011;5282;47.052;15.458;2023-04-25T02:42:56;4.80;;;4.40;;
10469;SDS011;5282;47.052;15.458;2023-04-25T02:45:22;6.93;;;4.67;;
10469;SDS011;5282;47.052;15.458;2023-04-25T02:47:53;6.00;;;4.37;;
10469;SDS011;5282;47.052;15.458;2023-04-25T02:50:20;3.90;;;3.70;;
10469;SDS011;5282;47.052;15.458;2023-04-25T02:52:46;4.23;;;3.83;;
10469;SDS011;5282;47.052;15.458;2023-04-25T02:55:14;4.60;;;4.20;;
10469;SDS011;5282;47.052;15.458;2023-04-25T02:57:41;4.40;;;4.20;;
10469;SDS011;5282;47.052;15.458;2023-04-25T03:00:10;4.47;;;4.37;;
10469;SDS011;5282;47.052;15.458;2023-04-25T03:02:39;7.93;;;4.70;;
10469;SDS011;5282;47.052;15.458;2023-04-25T03:05:08;4.00;;;3.80;;
10469;SDS011;5282;47.052;15.458;2023-04-25T03:07:35;4.33;;;4.23;;
10469;SDS011;5282;47.052;15.458;2023-04-25T03:10:05;4.70;;;4.37;;
10469;SDS011;5282;47.052;15.458;2023-04-25T03:12:33;4.70;;;4.30;;
10469;SDS011;5282;47.052;15.458;2023-04-25T03:15:00;4.40;;;4.20;;
10469;SDS011;5282;47.052;15.458;2023-04-25T03:17:27;4.73;;;4.47;;
10469;SDS011;5282;47.052;15.458;2023-04-25T03:19:55;4.60;;;4.40;;
10469;SDS011;5282;47.052;15.458;2023-04-25T03:22:23;5.87;;;4.70;;
10469;SDS011;5282;47.052;15.458;2023-04-25T03:24:50;4.43;;;4.23;;
10469;SDS011;5282;47.052;15.458;2023-04-25T03:27:17;5.57;;;5.37;;
10469;SDS011;5282;47.052;15.458;2023-04-25T03:29:44;7.73;;;6.97;;
10469;SDS011;5282;47.052;15.458;2023-04-25T03:32:11;6.60;;;6.20;;
10469;SDS011;5282;47.052;15.458;2023-04-25T03:34:40;5.70;;;5.30;;
10469;SDS011;5282;47.052;15.458;2023-04-25T03:37:07;6.07;;;5.67;;
10469;SDS011;5282;47.052;15.458;2023-04-25T03:39:38;6.70;;;6.27;;
10469;SDS011;5282;47.052;15.458;2023-04-25T03:42:05;8.77;;;6.87;;
10469;SDS011;5282;47.052;15.458;2023-04-25T03:44:32;8.40;;;6.00;;
10469;SDS011;5282;47.052;15.458;2023-04-25T03:46:58;9.87;;;7.70;;
10469;SDS011;5282;47.052;15.458;2023-04-25T03:49:25;33.23;;;8.03;;
10469;SDS011;5282;47.052;15.458;2023-04-25T03:51:52;33.03;;;8.63;;
10469;SDS011;5282;47.052;15.458;2023-04-25T03:54:19;58.93;;;7.60;;
10469;SDS011;5282;47.052;15.458;2023-04-25T03:56:47;19.20;;;6.70;;
10469;SDS011;5282;47.052;15.458;2023-04-25T03:59:14;33.30;;;6.83;;
10469;SDS011;5282;47.052;15.458;2023-04-25T04:01:41;46.83;;;7.63;;
10469;SDS011;5282;47.052;15.458;2023-04-25T04:04:08;111.83;;;8.90;;
10469;SDS011;5282;47.052;15.458;2023-04-25T04:06:35;114.57;;;9.07;;
10469;SDS011;5282;47.052;15.458;2023-04-25T04:09:02;92.70;;;9.47;;
10469;SDS011;5282;47.052;15.458;2023-04-25T04:11:29;22.00;;;7.60;;
10469;SDS011;5282;47.052;15.458;2023-04-25T04:13:58;45.60;;;9.27;;
10469;SDS011;5282;47.052;15.458;2023-04-25T04:16:25;174.37;;;10.87;;
10469;SDS011;5282;47.052;15.458;2023-04-25T04:18:52;95.70;;;9.93;;
10469;SDS011;5282;47.052;15.458;2023-04-25T04:21:19;53.30;;;9.13;;
10469;SDS011;5282;47.052;15.458;2023-04-25T04:23:46;97.10;;;9.83;;
10469;SDS011;5282;47.052;15.458;2023-04-25T04:26:13;63.87;;;9.30;;
10469;SDS011;5282;47.052;15.458;2023-04-25T04:28:41;67.53;;;8.80;;
10469;SDS011;5282;47.052;15.458;2023-04-25T04:31:10;24.47;;;8.87;;
10469;SDS011;5282;47.052;15.458;2023-04-25T04:33:37;53.33;;;9.33;;
10469;SDS011;5282;47.052;15.458;2023-04-25T04:36:05;19.50;;;8.53;;
10469;SDS011;5282;47.052;15.458;2023-04-25T04:38:32;18.67;;;8.57;;
10469;SDS011;5282;47.052;15.458;2023-04-25T04:40:59;13.60;;;8.40;;
10469;SDS011;5282;47.052;15.458;2023-04-25T04:43:27;10.70;;;8.00;;
10469;SDS011;5282;47.052;15.458;2023-04-25T04:45:54;18.67;;;9.03;;
10469;SDS011;5282;47.052;15.458;2023-04-25T04:48:23;20.50;;;7.60;;
10469;SDS011;5282;47.052;15.458;2023-04-25T04:50:50;24.90;;;7.90;;
10469;SDS011;5282;47.052;15.458;2023-04-25T04:53:17;7.87;;;7.23;;
10469;SDS011;5282;47.052;15.458;2023-04-25T04:55:45;15.43;;;7.07;;
10469;SDS011;5282;47.052;15.458;2023-04-25T04:58:12;13.07;;;7.73;;
10469;SDS011;5282;47.052;15.458;2023-04-25T05:00:39;23.80;;;8.33;;
10469;SDS011;5282;47.052;15.458;2023-04-25T05:03:07;19.73;;;8.50;;
10469;SDS011;5282;47.052;15.458;2023-04-25T05:05:35;10.17;;;8.90;;
10469;SDS011;5282;47.052;15.458;2023-04-25T05:08:05;14.63;;;9.03;;
10469;SDS011;5282;47.052;15.458;2023-04-25T05:10:32;16.73;;;8.87;;
10469;SDS011;5282;47.052;15.458;2023-04-25T05:13:00;20.03;;;8.70;;
10469;SDS011;5282;47.052;15.458;2023-04-25T05:15:29;24.43;;;8.60;;
10469;SDS011;5282;47.052;15.458;2023-04-25T05:17:56;18.20;;;9.83;;
10469;SDS011;5282;47.052;15.458;2023-04-25T05:20:23;18.00;;;8.30;;
10469;SDS011;5282;47.052;15.458;2023-04-25T05:22:51;26.10;;;8.43;;
10469;SDS011;5282;47.052;15.458;2023-04-25T05:25:18;10.60;;;7.57;;
10469;SDS011;5282;47.052;15.458;2023-04-25T05:27:45;8.67;;;7.97;;
10469;SDS011;5282;47.052;15.458;2023-04-25T05:30:12;10.10;;;7.80;;
10469;SDS011;5282;47.052;15.458;2023-04-25T05:32:39;11.30;;;8.37;;
10469;SDS011;5282;47.052;15.458;2023-04-25T05:35:06;8.70;;;7.97;;
10469;SDS011;5282;47.052;15.458;2023-04-25T05:37:34;13.77;;;7.77;;
10469;SDS011;5282;47.052;15.458;2023-04-25T05:40:03;18.70;;;7.73;;
10469;SDS011;5282;47.052;15.458;2023-04-25T05:42:34;11.63;;;8.63;;
10469;SDS011;5282;47.052;15.458;2023-04-25T05:45:01;8.63;;;7.77;;
10469;SDS011;5282;47.052;15.458;2023-04-25T05:47:30;8.07;;;7.17;;
10469;SDS011;5282;47.052;15.458;2023-04-25T05:49:57;8.17;;;7.67;;
10469;SDS011;5282;47.052;15.458;2023-04-25T05:52:24;8.47;;;7.80;;
10469;SDS011;5282;47.052;15.458;2023-04-25T05:54:51;8.57;;;8.07;;
10469;SDS011;5282;47.052;15.458;2023-04-25T05:57:20;8.53;;;7.93;;
10469;SDS011;5282;47.052;15.458;2023-04-25T05:59:48;7.40;;;6.90;;
10469;SDS011;5282;47.052;15.458;2023-04-25T06:02:15;7.30;;;6.90;;
10469;SDS011;5282;47.052;15.458;2023-04-25T06:04:42;7.93;;;7.30;;
10469;SDS011;5282;47.052;15.458;2023-04-25T06:07:09;7.80;;;7.20;;
10469;SDS011;5282;47.052;15.458;2023-04-25T06:09:36;8.50;;;8.00;;
10469;SDS011;5282;47.052;15.458;2023-04-25T06:12:04;8.70;;;8.10;;
10469;SDS011;5282;47.052;15.458;2023-04-25T06:14:33;9.80;;;8.93;;
10469;SDS011;5282;47.052;15.458;2023-04-25T06:17:00;9.50;;;8.70;;
10469;SDS011;5282;47.052;15.458;2023-04-25T06:19:33;9.77;;;8.87;;
10469;SDS011;5282;47.052;15.458;2023-04-25T06:22:00;10.63;;;9.83;;
10469;SDS011;5282;47.052;15.458;2023-04-25T06:24:27;11.23;;;10.30;;
10469;SDS011;5282;47.052;15.458;2023-04-25T06:26:54;10.13;;;9.13;;
10469;SDS011;5282;47.052;15.458;2023-04-25T06:29:21;9.70;;;8.93;;
10469;SDS011;5282;47.052;15.458;2023-04-25T06:31:50;10.23;;;9.47;;
10469;SDS011;5282;47.052;15.458;2023-04-25T06:34:17;9.60;;;8.80;;
10469;SDS011;5282;47.052;15.458;2023-04-25T06:36:46;9.90;;;9.20;;
10469;SDS011;5282;47.052;15.458;2023-04-25T06:39:13;9.40;;;8.70;;
10469;SDS011;5282;47.052;15.458;2023-04-25T06:41:40;10.23;;;9.40;;
10469;SDS011;5282;47.052;15.458;2023-04-25T06:44:07;9.30;;;8.70;;
10469;SDS011;5282;47.052;15.458;2023-04-25T06:46:34;9.33;;;8.67;;
10469;SDS011;5282;47.052;15.458;2023-04-25T06:49:02;9.40;;;8.50;;
10469;SDS011;5282;47.052;15.458;2023-04-25T06:51:30;8.13;;;7.63;;
10469;SDS011;5282;47.052;15.458;2023-04-25T06:53:57;8.20;;;7.70;;
10469;SDS011;5282;47.052;15.458;2023-04-25T06:56:26;6.73;;;6.43;;
10469;SDS011;5282;47.052;15.458;2023-04-25T06:58:54;7.43;;;6.60;;
10469;SDS011;5282;47.052;15.458;2023-04-25T07:01:21;6.37;;;6.07;;
10469;SDS011;5282;47.052;15.458;2023-04-25T07:03:48;6.90;;;6.50;;
10469;SDS011;5282;47.052;15.458;2023-04-25T07:06:16;6.33;;;6.03;;
10469;SDS011;5282;47.052;15.458;2023-04-25T07:08:44;8.33;;;6.33;;
10469;SDS011;5282;47.052;15.458;2023-04-25T07:11:11;5.77;;;5.40;;
10469;SDS011;5282;47.052;15.458;2023-04-25T07:13:39;6.07;;;5.77;;
10469;SDS011;5282;47.052;15.458;2023-04-25T07:16:06;6.03;;;5.63;;
10469;SDS011;5282;47.052;15.458;2023-04-25T07:18:33;6.10;;;5.60;;
10469;SDS011;5282;47.052;15.458;2023-04-25T07:21:00;5.90;;;5.57;;
10469;SDS011;5282;47.052;15.458;2023-04-25T07:23:29;6.47;;;5.87;;
10469;SDS011;5282;47.052;15.458;2023-04-25T07:25:56;6.47;;;6.07;;
10469;SDS011;5282;47.052;15.458;2023-04-25T07:28:23;6.07;;;5.60;;
10469;SDS011;5282;47.052;15.458;2023-04-25T07:30:50;5.23;;;4.97;;
10469;SDS011;5282;47.052;15.458;2023-04-25T07:33:17;4.90;;;4.70;;
10469;SDS011;5282;47.052;15.458;2023-04-25T07:35:45;5.43;;;5.03;;
10469;SDS011;5282;47.052;15.458;2023-04-25T07:38:12;7.10;;;5.00;;
10469;SDS011;5282;47.052;15.458;2023-04-25T07:40:40;5.10;;;4.60;;
10469;SDS011;5282;47.052;15.458;2023-04-25T07:43:07;4.83;;;4.53;;
10469;SDS011;5282;47.052;15.458;2023-04-25T07:45:37;5.10;;;4.70;;
10469;SDS011;5282;47.052;15.458;2023-04-25T07:48:04;4.10;;;3.73;;
10469;SDS011;5282;47.052;15.458;2023-04-25T07:50:31;3.17;;;2.97;;
10469;SDS011;5282;47.052;15.458;2023-04-25T07:52:58;3.20;;;2.90;;
10469;SDS011;5282;47.052;15.458;2023-04-25T07:55:25;3.27;;;3.17;;
10469;SDS011;5282;47.052;15.458;2023-04-25T07:57:54;2.43;;;2.30;;
10469;SDS011;5282;47.052;15.458;2023-04-25T08:00:21;2.87;;;2.67;;
10469;SDS011;5282;47.052;15.458;2023-04-25T08:02:48;2.10;;;2.00;;
10469;SDS011;5282;47.052;15.458;2023-04-25T08:05:16;1.50;;;1.50;;
10469;SDS011;5282;47.052;15.458;2023-04-25T08:07:43;1.40;;;1.30;;
10469;SDS011;5282;47.052;15.458;2023-04-25T08:10:10;1.50;;;1.40;;
10469;SDS011;5282;47.052;15.458;2023-04-25T08:12:39;1.50;;;1.50;;
10469;SDS011;5282;47.052;15.458;2023-04-25T08:15:08;1.20;;;1.20;;
10469;SDS011;5282;47.052;15.458;2023-04-25T08:17:36;1.20;;;1.20;;
10469;SDS011;5282;47.052;15.458;2023-04-25T08:20:03;1.10;;;1.10;;
10469;SDS011;5282;47.052;15.458;2023-04-25T08:22:31;2.87;;;1.30;;
10469;SDS011;5282;47.052;15.458;2023-04-25T08:24:59;1.43;;;1.40;;
10469;SDS011;5282;47.052;15.458;2023-04-25T08:27:26;1.00;;;1.00;;
10469;SDS011;5282;47.052;15.458;2023-04-25T08:29:53;1.00;;;1.00;;
10469;SDS011;5282;47.052;15.458;2023-04-25T08:32:21;1.10;;;1.10;;
10469;SDS011;5282;47.052;15.458;2023-04-25T08:34:48;1.47;;;1.00;;
10469;SDS011;5282;47.052;15.458;2023-04-25T08:37:16;1.20;;;1.20;;
10469;SDS011;5282;47.052;15.458;2023-04-25T08:39:45;0.97;;;0.97;;
10469;SDS011;5282;47.052;15.458;2023-04-25T08:42:12;1.10;;;1.10;;
10469;SDS011;5282;47.052;15.458;2023-04-25T08:44:39;1.20;;;1.00;;
10469;SDS011;5282;47.052;15.458;2023-04-25T08:47:06;1.00;;;1.00;;
10469;SDS011;5282;47.052;15.458;2023-04-25T08:49:34;1.23;;;1.10;;
10469;SDS011;5282;47.052;15.458;2023-04-25T08:52:03;0.93;;;0.93;;
10469;SDS011;5282;47.052;15.458;2023-04-25T08:54:32;1.73;;;1.27;;
10469;SDS011;5282;47.052;15.458;2023-04-25T08:57:00;0.93;;;0.93;;
10469;SDS011;5282;47.052;15.458;2023-04-25T08:59:30;1.03;;;1.03;;
10469;SDS011;5282;47.052;15.458;2023-04-25T09:01:58;1.67;;;1.00;;
10469;SDS011;5282;47.052;15.458;2023-04-25T09:04:26;1.77;;;0.93;;
10469;SDS011;5282;47.052;15.458;2023-04-25T09:06:54;1.27;;;1.17;;
10469;SDS011;5282;47.052;15.458;2023-04-25T09:09:21;3.33;;;1.10;;
10469;SDS011;5282;47.052;15.458;2023-04-25T09:11:48;1.10;;;1.00;;
10469;SDS011;5282;47.052;15.458;2023-04-25T09:14:16;1.03;;;0.97;;
10469;SDS011;5282;47.052;15.458;2023-04-25T09:16:58;1.83;;;1.13;;
10469;SDS011;5282;47.052;15.458;2023-04-25T09:19:27;2.83;;;1.20;;
10469;SDS011;5282;47.052;15.458;2023-04-25T09:21:56;1.10;;;1.10;;
10469;SDS011;5282;47.052;15.458;2023-04-25T09:24:34;3.30;;;1.37;;
10469;SDS011;5282;47.052;15.458;2023-04-25T09:27:03;3.63;;;1.40;;
10469;SDS011;5282;47.052;15.458;2023-04-25T09:29:31;1.07;;;1.07;;
10469;SDS011;5282;47.052;15.458;2023-04-25T09:32:11;1.20;;;1.03;;
10469;SDS011;5282;47.052;15.458;2023-04-25T09:34:44;0.97;;;0.97;;
10469;SDS011;5282;47.052;15.458;2023-04-25T09:37:18;1.30;;;1.20;;
10469;SDS011;5282;47.052;15.458;2023-04-25T09:39:47;0.90;;;0.90;;
10469;SDS011;5282;47.052;15.458;2023-04-25T09:42:15;1.27;;;1.27;;
10469;SDS011;5282;47.052;15.458;2023-04-25T09:44:43;1.20;;;1.10;;
10469;SDS011;5282;47.052;15.458;2023-04-25T09:47:11;2.00;;;1.00;;
10469;SDS011;5282;47.052;15.458;2023-04-25T09:49:40;2.43;;;0.90;;
10469;SDS011;5282;47.052;15.458;2023-04-25T09:52:08;1.20;;;1.20;;
10469;SDS011;5282;47.052;15.458;2023-04-25T09:54:37;2.30;;;1.10;;
10469;SDS011;5282;47.052;15.458;2023-04-25T09:57:09;1.17;;;1.17;;
10469;SDS011;5282;47.052;15.458;2023-04-25T09:59:38;0.70;;;0.70;;
10469;SDS011;5282;47.052;15.458;2023-04-25T10:02:09;0.80;;;0.80;;
10469;SDS011;5282;47.052;15.458;2023-04-25T10:04:39;0.90;;;0.90;;
10469;SDS011;5282;47.052;15.458;2023-04-25T10:07:07;1.00;;;1.00;;
10469;SDS011;5282;47.052;15.458;2023-04-25T10:09:38;0.90;;;0.90;;
10469;SDS011;5282;47.052;15.458;2023-04-25T10:12:06;1.70;;;1.10;;
10469;SDS011;5282;47.052;15.458;2023-04-25T10:14:33;0.97;;;0.97;;
10469;SDS011;5282;47.052;15.458;2023-04-25T10:17:01;1.10;;;0.90;;
10469;SDS011;5282;47.052;15.458;2023-04-25T10:19:28;0.97;;;0.97;;
10469;SDS011;5282;47.052;15.458;2023-04-25T10:21:58;0.80;;;0.80;;
10469;SDS011;5282;47.052;15.458;2023-04-25T10:24:31;1.00;;;1.00;;
10469;SDS011;5282;47.052;15.458;2023-04-25T10:26:59;1.17;;;1.17;;
10469;SDS011;5282;47.052;15.458;2023-04-25T10:29:27;1.47;;;1.03;;
10469;SDS011;5282;47.052;15.458;2023-04-25T10:31:54;1.13;;;1.03;;
10469;SDS011;5282;47.052;15.458;2023-04-25T10:34:23;1.73;;;1.10;;
10469;SDS011;5282;47.052;15.458;2023-04-25T10:37:03;1.70;;;1.10;;
10469;SDS011;5282;47.052;15.458;2023-04-25T10:39:30;0.90;;;0.90;;
10469;SDS011;5282;47.052;15.458;2023-04-25T10:42:01;1.27;;;1.07;;
10469;SDS011;5282;47.052;15.458;2023-04-25T10:44:29;0.97;;;0.97;;
10469;SDS011;5282;47.052;15.458;2023-04-25T10:46:57;0.83;;;0.73;;
10469;SDS011;5282;47.052;15.458;2023-04-25T10:49:29;1.00;;;1.00;;
10469;SDS011;5282;47.052;15.458;2023-04-25T10:52:13;1.00;;;1.00;;
10469;SDS011;5282;47.052;15.458;2023-04-25T10:54:42;1.10;;;1.00;;
10469;SDS011;5282;47.052;15.458;2023-04-25T11:00:05;0.93;;;0.93;;
10469;SDS011;5282;47.052;15.458;2023-04-25T11:02:42;0.90;;;0.90;;
10469;SDS011;5282;47.052;15.458;2023-04-25T11:05:22;1.87;;;0.90;;
10469;SDS011;5282;47.052;15.458;2023-04-25T11:07:55;0.90;;;0.90;;
10469;SDS011;5282;47.052;15.458;2023-04-25T11:10:24;1.07;;;0.90;;
10469;SDS011;5282;47.052;15.458;2023-04-25T11:12:53;0.90;;;0.90;;
10469;SDS011;5282;47.052;15.458;2023-04-25T11:15:20;0.80;;;0.80;;
10469;SDS011;5282;47.052;15.458;2023-04-25T11:17:47;1.10;;;1.10;;
10469;SDS011;5282;47.052;15.458;2023-04-25T11:20:14;1.90;;;0.90;;
10469;SDS011;5282;47.052;15.458;2023-04-25T11:22:41;1.07;;;1.03;;
10469;SDS011;5282;47.052;15.458;2023-04-25T11:25:11;1.27;;;1.10;;
10469;SDS011;5282;47.052;15.458;2023-04-25T11:27:49;2.03;;;1.00;;
10469;SDS011;5282;47.052;15.458;2023-04-25T11:30:18;0.90;;;0.90;;
10469;SDS011;5282;47.052;15.458;2023-04-25T11:32:46;1.17;;;1.00;;
10469;SDS011;5282;47.052;15.458;2023-04-25T11:35:19;1.47;;;1.37;;
10469;SDS011;5282;47.052;15.458;2023-04-25T11:37:48;2.47;;;1.00;;
10469;SDS011;5282;47.052;15.458;2023-04-25T11:40:15;1.10;;;1.10;;
10469;SDS011;5282;47.052;15.458;2023-04-25T11:42:43;1.33;;;1.23;;
10469;SDS011;5282;47.052;15.458;2023-04-25T11:45:10;0.90;;;0.90;;
10469;SDS011;5282;47.052;15.458;2023-04-25T11:47:39;1.00;;;1.00;;
10469;SDS011;5282;47.052;15.458;2023-04-25T11:50:07;1.07;;;1.07;;
10469;SDS011;5282;47.052;15.458;2023-04-25T11:52:38;1.10;;;1.00;;
10469;SDS011;5282;47.052;15.458;2023-04-25T11:55:06;0.90;;;0.90;;
10469;SDS011;5282;47.052;15.458;2023-04-25T11:57:35;0.90;;;0.90;;
10469;SDS011;5282;47.052;15.458;2023-04-25T12:00:08;0.90;;;0.90;;
10469;SDS011;5282;47.052;15.458;2023-04-25T12:02:42;0.83;;;0.70;;
10469;SDS011;5282;47.052;15.458;2023-04-25T12:05:10;1.00;;;0.93;;
10469;SDS011;5282;47.052;15.458;2023-04-25T12:07:38;0.80;;;0.80;;
10469;SDS011;5282;47.052;15.458;2023-04-25T12:10:07;1.43;;;1.00;;
10469;SDS011;5282;47.052;15.458;2023-04-25T12:12:35;0.70;;;0.70;;
10469;SDS011;5282;47.052;15.458;2023-04-25T12:15:12;0.80;;;0.80;;
10469;SDS011;5282;47.052;15.458;2023-04-25T12:17:45;1.20;;;1.10;;
10469;SDS011;5282;47.052;15.458;2023-04-25T12:20:13;1.03;;;0.93;;
10469;SDS011;5282;47.052;15.458;2023-04-25T12:22:41;0.97;;;0.97;;
10469;SDS011;5282;47.052;15.458;2023-04-25T12:25:11;1.03;;;1.03;;
10469;SDS011;5282;47.052;15.458;2023-04-25T12:27:38;1.00;;;0.90;;
10469;SDS011;5282;47.052;15.458;2023-04-25T12:30:07;0.80;;;0.80;;
10469;SDS011;5282;47.052;15.458;2023-04-25T12:32:35;1.10;;;0.97;;
10469;SDS011;5282;47.052;15.458;2023-04-25T12:35:04;1.20;;;1.10;;
10469;SDS011;5282;47.052;15.458;2023-04-25T12:37:32;1.10;;;1.00;;
10469;SDS011;5282;47.052;15.458;2023-04-25T12:39:59;1.13;;;0.77;;
10469;SDS011;5282;47.052;15.458;2023-04-25T12:42:26;0.80;;;0.80;;
10469;SDS011;5282;47.052;15.458;2023-04-25T12:44:53;2.67;;;0.80;;
10469;SDS011;5282;47.052;15.458;2023-04-25T12:47:20;1.00;;;1.00;;
10469;SDS011;5282;47.052;15.458;2023-04-25T12:49:47;0.80;;;0.80;;
10469;SDS011;5282;47.052;15.458;2023-04-25T12:52:16;2.17;;;0.80;;
10469;SDS011;5282;47.052;15.458;2023-04-25T12:54:43;0.87;;;0.80;;
10469;SDS011;5282;47.052;15.458;2023-04-25T12:57:09;0.90;;;0.90;;
10469;SDS011;5282;47.052;15.458;2023-04-25T12:59:36;1.37;;;1.10;;
10469;SDS011;5282;47.052;15.458;2023-04-25T13:02:03;1.07;;;1.07;;
10469;SDS011;5282;47.052;15.458;2023-04-25T13:04:30;1.33;;;1.00;;
10469;SDS011;5282;47.052;15.458;2023-04-25T13:06:57;1.13;;;1.13;;
10469;SDS011;5282;47.052;15.458;2023-04-25T13:09:25;1.43;;;1.10;;
10469;SDS011;5282;47.052;15.458;2023-04-25T13:11:52;1.23;;;1.00;;
10469;SDS011;5282;47.052;15.458;2023-04-25T13:14:19;1.57;;;1.13;;
10469;SDS011;5282;47.052;15.458;2023-04-25T13:16:46;0.93;;;0.93;;
10469;SDS011;5282;47.052;15.458;2023-04-25T13:19:13;1.03;;;1.03;;
10469;SDS011;5282;47.052;15.458;2023-04-25T13:21:40;1.20;;;1.10;;
10469;SDS011;5282;47.052;15.458;2023-04-25T13:24:07;1.10;;;1.10;;
10469;SDS011;5282;47.052;15.458;2023-04-25T13:26:35;1.80;;;1.10;;
10469;SDS011;5282;47.052;15.458;2023-04-25T13:29:02;0.83;;;0.83;;
10469;SDS011;5282;47.052;15.458;2023-04-25T13:31:30;0.80;;;0.80;;
10469;SDS011;5282;47.052;15.458;2023-04-25T13:33:57;0.90;;;0.90;;
10469;SDS011;5282;47.052;15.458;2023-04-25T13:36:24;1.67;;;0.80;;
10469;SDS011;5282;47.052;15.458;2023-04-25T13:38:51;2.13;;;0.90;;
10469;SDS011;5282;47.052;15.458;2023-04-25T13:41:18;1.80;;;0.83;;
10469;SDS011;5282;47.052;15.458;2023-04-25T13:43:47;0.97;;;0.97;;
10469;SDS011;5282;47.052;15.458;2023-04-25T13:46:14;1.47;;;0.90;;
10469;SDS011;5282;47.052;15.458;2023-04-25T13:48:42;0.77;;;0.77;;
10469;SDS011;5282;47.052;15.458;2023-04-25T13:51:14;1.70;;;0.90;;
10469;SDS011;5282;47.052;15.458;2023-04-25T13:53:43;0.90;;;0.90;;
10469;SDS011;5282;47.052;15.458;2023-04-25T13:56:10;1.07;;;0.90;;
10469;SDS011;5282;47.052;15.458;2023-04-25T13:58:38;2.37;;;0.90;;
10469;SDS011;5282;47.052;15.458;2023-04-25T14:01:06;1.93;;;0.90;;
10469;SDS011;5282;47.052;15.458;2023-04-25T14:03:33;1.00;;;1.00;;
10469;SDS011;5282;47.052;15.458;2023-04-25T14:06:00;1.80;;;0.97;;
10469;SDS011;5282;47.052;15.458;2023-04-25T14:08:27;1.10;;;1.10;;
10469;SDS011;5282;47.052;15.458;2023-04-25T14:10:54;2.97;;;0.97;;
10469;SDS011;5282;47.052;15.458;2023-04-25T14:13:21;1.77;;;1.13;;
10469;SDS011;5282;47.052;15.458;2023-04-25T14:15:49;1.40;;;0.90;;
10469;SDS011;5282;47.052;15.458;2023-04-25T14:18:18;1.00;;;1.00;;
10469;SDS011;5282;47.052;15.458;2023-04-25T14:20:45;0.87;;;0.87;;
10469;SDS011;5282;47.052;15.458;2023-04-25T14:23:12;2.27;;;1.10;;
10469;SDS011;5282;47.052;15.458;2023-04-25T14:25:39;1.00;;;1.00;;
10469;SDS011;5282;47.052;15.458;2023-04-25T14:28:07;1.10;;;1.00;;
10469;SDS011;5282;47.052;15.458;2023-04-25T14:30:34;1.37;;;0.90;;
10469;SDS011;5282;47.052;15.458;2023-04-25T14:33:01;0.90;;;0.90;;
10469;SDS011;5282;47.052;15.458;2023-04-25T14:35:29;0.70;;;0.70;;
10469;SDS011;5282;47.052;15.458;2023-04-25T14:37:56;1.47;;;0.90;;
10469;SDS011;5282;47.052;15.458;2023-04-25T14:40:23;1.00;;;0.90;;
10469;SDS011;5282;47.052;15.458;2023-04-25T14:42:52;1.00;;;1.00;;
10469;SDS011;5282;47.052;15.458;2023-04-25T14:45:19;1.40;;;0.80;;
10469;SDS011;5282;47.052;15.458;2023-04-25T14:47:46;2.80;;;0.90;;
10469;SDS011;5282;47.052;15.458;2023-04-25T14:50:13;1.20;;;0.80;;
10469;SDS011;5282;47.052;15.458;2023-04-25T14:52:42;0.73;;;0.73;;